Terminal Aerodrome Forecast
Issued by NWS

Home | Current Version | Previous Version | Text Only | Print | Product List | Glossary On
Versions: 1 2 3 4 5 6 7 8 9 10 11 12 13 14 15 16 17 18 19 20 21 22 23 24 25 26 27 28 29
453
FTUS41 KPBZ 171309 AAA
TAFDUJ
TAF AMD
KDUJ 171309Z 1713/1812 VRB03KT 2SM BR BKN200
      TEMPO 1713/1714 1SM BR
     FM171500 VRB03KT 3SM BR BKN150
     FM171600 16004KT P6SM BKN150
     FM180000 18005KT P6SM OVC030
     FM180300 21005KT P6SM OVC015
     FM180700 22005KT 5SM -DZ BR VCSH OVC010=

USA.gov is the U.S. government's official web portal to all federal, state and local government web resources and services.